createdAt,value
2023-08-04T00:04:25.802Z,5.07
2023-08-04T00:09:27.393Z,2.03
2023-08-04T00:14:29.050Z,2.10
2023-08-04T00:19:30.658Z,3.17
2023-08-04T00:24:32.261Z,2.75
2023-08-04T00:29:33.907Z,2.78
2023-08-04T00:34:35.519Z,3.15
2023-08-04T00:39:37.102Z,2.83
2023-08-04T00:44:38.738Z,2.13
2023-08-04T00:49:41.547Z,2.30
2023-08-04T00:54:45.101Z,2.95
2023-08-04T00:59:46.761Z,3.95
2023-08-04T01:04:48.466Z,2.33
2023-08-04T01:10:04.958Z,4.35
2023-08-04T01:15:08.024Z,2.13
2023-08-04T01:20:10.213Z,2.70
2023-08-04T01:25:11.916Z,3.90
2023-08-04T01:30:19.378Z,1.77
2023-08-04T01:35:21.263Z,2.90
2023-08-04T01:40:22.997Z,4.85
2023-08-04T01:45:24.607Z,3.78
2023-08-04T01:50:26.258Z,4.13
2023-08-04T01:55:27.866Z,2.55
2023-08-04T02:00:29.493Z,2.55
2023-08-04T02:05:31.058Z,3.78
2023-08-04T02:10:35.073Z,5.20
2023-08-04T02:15:36.674Z,4.72
2023-08-04T02:20:38.292Z,2.30
2023-08-04T02:25:39.874Z,1.27
2023-08-04T02:30:41.539Z,1.98
2023-08-04T02:35:43.179Z,2.47
2023-08-04T02:40:44.975Z,5.13
2023-08-04T02:45:52.147Z,1.80
2023-08-04T02:51:04.049Z,2.05
2023-08-04T02:56:13.561Z,3.75
2023-08-04T03:01:15.935Z,1.80
2023-08-04T03:06:17.618Z,5.25
2023-08-04T03:11:19.197Z,3.13
2023-08-04T03:16:20.842Z,3.70
2023-08-04T03:21:22.418Z,5.10
2023-08-04T03:26:24.053Z,2.80
2023-08-04T03:31:25.810Z,1.80
2023-08-04T03:36:27.466Z,4.53
2023-08-04T03:41:29.821Z,3.85
2023-08-04T03:46:31.478Z,4.32
2023-08-04T03:51:33.097Z,5.50
2023-08-04T03:56:34.727Z,3.60
2023-08-04T04:01:36.394Z,5.88
2023-08-04T04:06:38.154Z,4.13
2023-08-04T04:11:39.730Z,4.35
2023-08-04T04:16:41.345Z,3.40
2023-08-04T04:21:43.586Z,2.53
2023-08-04T04:26:45.192Z,3.90
2023-08-04T04:31:47.009Z,4.20
2023-08-04T04:36:48.737Z,5.97
2023-08-04T04:41:50.389Z,2.90
2023-08-04T04:46:52.210Z,3.75
2023-08-04T04:51:53.851Z,3.85
2023-08-04T04:56:55.539Z,3.83
2023-08-04T05:01:57.225Z,5.30
2023-08-04T05:06:58.878Z,2.80
2023-08-04T05:12:00.472Z,3.63
2023-08-04T05:17:02.103Z,5.07
2023-08-04T05:22:03.851Z,4.97
2023-08-04T05:27:06.150Z,3.13
2023-08-04T05:32:08.088Z,2.13
2023-08-04T05:37:09.777Z,3.20
2023-08-04T05:42:11.383Z,4.70
2023-08-04T05:47:13.272Z,2.88
2023-08-04T05:52:14.959Z,4.72
2023-08-04T05:57:24.332Z,2.78
2023-08-04T06:02:25.955Z,1.77
2023-08-04T06:07:27.605Z,2.33
2023-08-04T06:12:30.801Z,3.70
2023-08-04T06:17:34.180Z,2.55
2023-08-04T06:22:36.701Z,2.47
2023-08-04T06:27:38.401Z,2.67
2023-08-04T06:32:42.548Z,2.38
2023-08-04T06:37:44.225Z,3.95
2023-08-04T06:42:45.976Z,2.15
2023-08-04T06:47:47.811Z,3.42
2023-08-04T06:52:49.398Z,2.70
2023-08-04T06:57:52.236Z,2.65
2023-08-04T07:02:53.941Z,2.33
2023-08-04T07:07:55.909Z,2.95
2023-08-04T07:12:57.740Z,1.05
2023-08-04T07:17:59.399Z,2.55
2023-08-04T07:23:01.020Z,2.72
2023-08-04T07:28:02.654Z,3.30
2023-08-04T07:33:08.014Z,1.77
2023-08-04T07:38:09.696Z,1.80
2023-08-04T07:43:13.232Z,3.90
2023-08-04T07:48:15.025Z,3.10
2023-08-04T07:53:16.832Z,1.25
2023-08-04T07:58:18.404Z,2.50
2023-08-04T08:03:20.118Z,2.33
2023-08-04T08:08:21.860Z,3.28
2023-08-04T08:13:30.101Z,2.05
2023-08-04T08:18:31.629Z,2.70
2023-08-04T08:23:33.594Z,2.20
2023-08-04T08:28:35.309Z,3.30
2023-08-04T08:33:36.982Z,3.40
2023-08-04T08:38:38.579Z,2.53
2023-08-04T08:43:45.128Z,2.63
2023-08-04T08:48:47.289Z,3.30
2023-08-04T08:53:49.540Z,2.28
2023-08-04T08:58:51.391Z,2.42
2023-08-04T09:03:53.101Z,2.03
2023-08-04T09:08:55.339Z,1.42
2023-08-04T09:13:57.649Z,3.25
2023-08-04T09:19:07.453Z,2.03
2023-08-04T09:24:14.440Z,2.65
2023-08-04T09:29:16.253Z,4.07
2023-08-04T09:34:17.946Z,1.95
2023-08-04T09:39:19.544Z,2.78
2023-08-04T09:44:22.238Z,3.85
2023-08-04T09:49:25.193Z,2.42
2023-08-04T09:54:26.808Z,1.67
2023-08-04T09:59:29.304Z,2.53
2023-08-04T10:04:31.630Z,1.67
2023-08-04T10:09:35.840Z,1.23
2023-08-04T10:14:37.683Z,2.35
2023-08-04T10:19:39.459Z,2.83
2023-08-04T10:24:44.255Z,2.45
2023-08-04T10:29:46.565Z,5.03
2023-08-04T10:34:49.122Z,5.03
2023-08-04T10:39:56.967Z,4.63
2023-08-04T10:45:07.358Z,4.93
2023-08-04T10:50:09.395Z,4.03
2023-08-04T10:55:13.715Z,4.07
2023-08-04T11:00:16.078Z,3.05
2023-08-04T11:05:18.004Z,2.90
2023-08-04T11:10:19.886Z,3.17
2023-08-04T11:15:25.269Z,2.65
2023-08-04T11:20:33.433Z,3.60
2023-08-04T11:25:35.954Z,3.00
2023-08-04T11:30:40.380Z,2.85
2023-08-04T11:35:41.966Z,3.15
2023-08-04T11:41:01.045Z,3.45
2023-08-04T11:46:07.858Z,3.50
2023-08-04T11:51:09.844Z,4.28
2023-08-04T11:56:24.740Z,4.95
2023-08-04T12:01:35.885Z,3.05
2023-08-04T12:06:38.862Z,4.70
2023-08-04T12:11:49.473Z,4.40
2023-08-04T12:17:00.418Z,4.70
2023-08-04T12:22:05.382Z,4.00
2023-08-04T12:27:07.542Z,5.03
2023-08-04T12:32:09.208Z,4.05
2023-08-04T12:37:11.135Z,3.67
2023-08-04T12:42:12.840Z,6.78
2023-08-04T12:47:14.634Z,3.22
2023-08-04T12:52:16.338Z,3.13
2023-08-04T12:57:18.075Z,3.10
2023-08-04T13:02:19.799Z,4.40
2023-08-04T13:07:21.441Z,6.50
2023-08-04T13:12:23.166Z,5.15
2023-08-04T13:17:28.309Z,6.78
2023-08-04T13:22:29.920Z,5.30
2023-08-04T13:27:31.877Z,5.60
2023-08-04T13:32:33.548Z,6.25
2023-08-04T13:37:35.233Z,6.57
2023-08-04T13:42:36.851Z,6.75
2023-08-04T13:47:39.174Z,6.00
2023-08-04T13:52:40.863Z,5.97
2023-08-04T13:57:42.673Z,6.03
2023-08-04T14:02:44.589Z,6.07
2023-08-04T14:08:14.077Z,5.70
2023-08-04T14:18:17.499Z,4.80
2023-08-04T14:23:19.655Z,5.78
2023-08-04T14:28:22.505Z,5.72
2023-08-04T14:33:24.141Z,5.03
2023-08-04T14:38:25.724Z,4.47
2023-08-04T14:43:27.335Z,6.47
2023-08-04T14:48:29.131Z,6.63
2023-08-04T14:53:30.790Z,6.10
2023-08-04T14:58:32.590Z,4.78
2023-08-04T15:03:37.971Z,5.15
2023-08-04T15:08:40.353Z,5.88
2023-08-04T15:13:45.236Z,6.63
2023-08-04T15:18:46.900Z,6.22
2023-08-04T15:23:48.953Z,6.22
2023-08-04T15:28:53.612Z,5.32
2023-08-04T15:33:55.564Z,7.18
2023-08-04T15:38:57.211Z,6.15
2023-08-04T15:43:58.831Z,6.80
2023-08-04T15:49:00.438Z,7.25
2023-08-04T15:54:02.085Z,7.93
2023-08-04T15:59:03.927Z,6.93
2023-08-04T16:04:05.631Z,7.35
2023-08-04T16:09:07.624Z,7.65
2023-08-04T16:14:09.304Z,7.93
2023-08-04T16:19:10.858Z,8.20
2023-08-04T16:24:12.488Z,9.57
2023-08-04T16:29:14.090Z,8.45
2023-08-04T16:34:15.710Z,8.02
2023-08-04T16:39:17.526Z,9.75
2023-08-04T16:44:19.453Z,10.20
2023-08-04T16:49:22.925Z,11.15
2023-08-04T16:54:24.579Z,8.10
2023-08-04T16:59:26.165Z,7.57
2023-08-04T17:04:29.163Z,8.30
2023-08-04T17:09:30.772Z,8.60
2023-08-04T17:14:32.557Z,8.02
2023-08-04T17:19:34.163Z,8.10
2023-08-04T17:24:35.894Z,8.80
2023-08-04T17:29:37.540Z,7.72
2023-08-04T17:34:39.256Z,13.73
2023-08-04T17:39:40.829Z,10.60
2023-08-04T17:44:42.416Z,7.82
2023-08-04T17:49:45.777Z,10.10
2023-08-04T17:54:47.594Z,9.25
2023-08-04T17:59:55.742Z,9.57
2023-08-04T18:04:57.436Z,9.57
2023-08-04T18:09:59.029Z,11.48
2023-08-04T18:15:00.826Z,10.63
2023-08-04T18:20:02.393Z,11.68
2023-08-04T18:25:04.157Z,12.05
2023-08-04T18:30:07.236Z,8.57
2023-08-04T18:35:09.525Z,9.77
2023-08-04T18:40:12.120Z,8.52
2023-08-04T18:45:14.994Z,10.82
2023-08-04T18:50:16.585Z,11.45
2023-08-04T18:55:18.134Z,9.27
2023-08-04T19:00:22.731Z,7.68
2023-08-04T19:05:24.453Z,12.07
2023-08-04T19:10:26.278Z,10.73
2023-08-04T19:15:27.862Z,9.90
2023-08-04T19:20:29.445Z,10.48
2023-08-04T19:25:31.094Z,9.65
2023-08-04T19:30:32.699Z,10.38
2023-08-04T19:35:34.319Z,9.60
2023-08-04T19:40:35.899Z,9.93
2023-08-04T19:45:37.516Z,11.85
2023-08-04T19:50:39.207Z,9.05
2023-08-04T19:55:46.483Z,10.93
2023-08-04T20:00:50.594Z,12.27
2023-08-04T20:05:52.933Z,11.60
2023-08-04T20:10:58.490Z,10.50
2023-08-04T20:16:07.544Z,10.52
2023-08-04T20:21:09.871Z,12.40
2023-08-04T20:26:13.563Z,12.85
2023-08-04T20:31:18.691Z,15.93
2023-08-04T20:36:20.314Z,14.15
2023-08-04T20:41:24.823Z,10.93
2023-08-04T20:46:26.445Z,16.33
2023-08-04T20:51:28.289Z,15.85
2023-08-04T20:56:29.842Z,12.13
2023-08-04T21:01:31.506Z,11.20
2023-08-04T21:06:33.240Z,14.45
2023-08-04T21:11:37.729Z,11.77
2023-08-04T21:16:40.060Z,11.65
2023-08-04T21:21:41.645Z,13.95
2023-08-04T21:26:43.212Z,14.07
2023-08-04T21:31:48.646Z,9.70
2023-08-04T21:36:50.530Z,12.40
2023-08-04T21:41:52.409Z,15.65
2023-08-04T21:46:54.078Z,9.38
2023-08-04T21:51:55.729Z,9.40
2023-08-04T21:56:57.429Z,11.32
2023-08-04T22:02:01.969Z,10.82
2023-08-04T22:07:03.669Z,12.02
2023-08-04T22:12:08.323Z,11.20
2023-08-04T22:17:09.987Z,10.93
2023-08-04T22:22:12.977Z,10.25
2023-08-04T22:27:15.383Z,8.77
2023-08-04T22:32:17.091Z,9.90
2023-08-04T22:37:18.692Z,9.18
2023-08-04T22:42:20.241Z,10.90
2023-08-04T22:47:21.863Z,13.57
2023-08-04T22:52:24.305Z,10.25
2023-08-04T22:57:25.924Z,11.40
2023-08-04T23:02:27.575Z,15.25
2023-08-04T23:07:29.319Z,12.43
2023-08-04T23:12:30.904Z,11.40
2023-08-04T23:17:32.558Z,12.63
2023-08-04T23:22:34.272Z,10.27
2023-08-04T23:27:35.827Z,10.05
2023-08-04T23:32:37.419Z,12.13
2023-08-04T23:37:39.010Z,12.15
2023-08-04T23:42:40.593Z,10.65
2023-08-04T23:47:42.188Z,10.43
2023-08-04T23:52:43.820Z,10.32
2023-08-04T23:57:45.829Z,12.20
